Time;durP1;ratioP1;P1;durP2;ratioP2;P2;SDS_P1;SDS_P2;PMS_P1;PMS_P2;Temp;Humidity;BMP_temperature;BMP_pressure;BME280_temperature;BME280_humidity;BME280_pressure;Samples;Min_cycle;Max_cycle;Signal;HPM_P1;HPM_P2
2022/06/22 00:01:13;;;;;;;;;;;;;;;22.99;45.15;99760.25;5066193;28;942;-41
2022/06/22 00:03:38;;;;;;;;;;;;;;;22.25;48.93;99777.59;5072716;28;1099;-40
2022/06/22 00:06:03;;;;;;;;;;;;;;;23.28;45.50;99778.47;5048675;28;1068;-42
2022/06/22 00:08:30;;;;;;;;;;;;;;;22.22;46.48;99772.59;5071045;28;1211;-40
2022/06/22 00:10:57;;;;;;;;;;;;;;;22.27;48.61;99787.13;5070463;28;989;-42
2022/06/22 00:13:23;;;;;;;;;;;;;;;23.39;45.63;99787.97;5068126;28;973;-41
2022/06/22 00:15:48;;;;;;;;;;;;;;;22.81;45.31;99797.25;5065453;28;1096;-41
2022/06/22 00:18:26;;;;;;;;;;;;;;;22.38;48.31;99787.75;5071117;28;1894;-41
2022/06/22 00:20:52;;;;;;;;;;;;;;;23.46;45.33;99781.72;5067265;28;1170;-42
2022/06/22 00:23:25;;;;;;;;;;;;;;;22.83;45.13;99790.72;5073745;28;1024;-41
2022/06/22 00:25:50;;;;;;;;;;;;;;;22.18;48.63;99792.69;5064829;28;1134;-42
2022/06/22 00:28:34;;;;;;;;;;;;;;;23.32;45.52;99791.34;5074405;28;1111;-40
2022/06/22 00:31:12;;;;;;;;;;;;;;;22.68;45.08;99795.16;5075379;28;1191;-42
2022/06/22 00:33:37;;;;;;;;;;;;;;;22.20;48.92;99798.69;5069091;28;862;-40
2022/06/22 00:36:17;;;;;;;;;;;;;;;23.32;45.28;99787.84;5062423;28;997;-36
2022/06/22 00:38:42;;;;;;;;;;;;;;;22.60;45.17;99798.69;5044503;28;1910;-39
2022/06/22 00:41:16;;;;;;;;;;;;;;;22.22;48.69;99802.88;5065290;28;1144;-41
2022/06/22 00:43:41;;;;;;;;;;;;;;;23.30;45.06;99804.13;5049182;28;985;-40
2022/06/22 00:46:16;;;;;;;;;;;;;;;23.01;44.19;99819.09;5051638;28;1197;-39
2022/06/22 00:48:42;;;;;;;;;;;;;;;21.92;49.82;99841.97;5055322;28;1092;-40
2022/06/22 00:51:08;;;;;;;;;;;;;;;23.07;45.92;99857.78;5065609;28;1202;-40
2022/06/22 00:53:43;;;;;;;;;;;;;;;23.69;45.12;99860.56;5074980;28;965;-40
2022/06/22 00:56:10;;;;;;;;;;;;;;;24.18;44.49;99877.22;5055748;28;1187;-38
2022/06/22 00:58:39;;;;;;;;;;;;;;;22.00;46.58;99869.53;5047389;28;1965;-41
2022/06/22 01:01:04;;;;;;;;;;;;;;;22.58;47.55;99881.13;5055959;28;1060;-39
2022/06/22 01:03:48;;;;;;;;;;;;;;;23.36;47.46;99896.50;5061048;28;1163;-39
2022/06/22 01:06:15;;;;;;;;;;;;;;;23.13;44.08;99900.00;5075724;28;1008;-40
2022/06/22 01:08:50;;;;;;;;;;;;;;;21.96;50.45;99899.50;5045580;28;1037;-40
2022/06/22 01:14:20;;;;;;;;;;;;;;;23.85;44.49;99924.84;5006371;28;1218;-39
2022/06/22 01:16:46;;;;;;;;;;;;;;;24.10;45.38;99923.78;5047901;28;1985;-38
2022/06/22 01:19:30;;;;;;;;;;;;;;;21.27;46.78;99819.38;5051218;28;1223;-39
2022/06/22 01:22:22;;;;;;;;;;;;;;;22.42;48.00;99919.53;5070866;28;831;-39
2022/06/22 01:24:50;;;;;;;;;;;;;;;23.37;47.07;99927.69;5059779;28;1329;-41
2022/06/22 01:27:18;;;;;;;;;;;;;;;24.02;43.87;99926.56;5074655;28;1190;-38
2022/06/22 01:29:45;;;;;;;;;;;;;;;23.47;43.00;99928.31;5064129;28;929;-41
2022/06/22 01:32:14;;;;;;;;;;;;;;;21.83;50.23;99933.00;5050885;28;992;-41
2022/06/22 01:34:40;;;;;;;;;;;;;;;22.94;46.75;99928.09;5047983;28;1052;-38
2022/06/22 01:37:06;;;;;;;;;;;;;;;23.57;46.17;99936.13;5048601;28;1901;-39
2022/06/22 01:39:31;;;;;;;;;;;;;;;24.09;43.80;99940.91;5070015;28;1111;-40
2022/06/22 01:42:01;;;;;;;;;;;;;;;23.19;44.41;99936.84;5050966;28;1108;-40
2022/06/22 01:44:30;;;;;;;;;;;;;;;22.03;50.07;99938.03;5072550;28;1167;-39
2022/06/22 01:47:08;;;;;;;;;;;;;;;23.25;46.02;99935.31;5059485;28;1084;-41
2022/06/22 01:49:45;;;;;;;;;;;;;;;23.90;45.11;99937.75;5076183;28;1171;-42
2022/06/22 01:52:11;;;;;;;;;;;;;;;24.28;45.53;99931.53;5067224;28;942;-40
2022/06/22 01:54:43;;;;;;;;;;;;;;;22.22;46.45;99926.09;5047818;28;1021;-40
2022/06/22 01:57:13;;;;;;;;;;;;;;;22.45;48.12;99938.81;5071834;28;1898;-40
2022/06/22 01:59:41;;;;;;;;;;;;;;;23.45;47.49;99937.56;5056418;28;973;-42
2022/06/22 02:02:10;;;;;;;;;;;;;;;23.96;44.46;99946.91;5073553;28;1131;-40
2022/06/22 02:04:43;;;;;;;;;;;;;;;24.06;42.34;99952.03;5055026;28;1204;-41
2022/06/22 02:07:47;;;;;;;;;;;;;;;21.64;48.03;99950.19;5067251;28;884;-40
2022/06/22 02:10:25;;;;;;;;;;;;;;;22.99;46.43;99952.53;5068027;28;982;-40
2022/06/22 02:12:58;;;;;;;;;;;;;;;23.70;45.64;99951.66;5070994;28;988;-40
2022/06/22 02:15:44;;;;;;;;;;;;;;;24.16;45.59;99951.75;5073272;28;1186;-40
2022/06/22 02:18:17;;;;;;;;;;;;;;;22.38;45.80;99949.38;5037786;28;1910;-41
2022/06/22 02:20:42;;;;;;;;;;;;;;;22.23;48.59;99951.91;5029877;28;1207;-39
2022/06/22 02:23:20;;;;;;;;;;;;;;;23.35;46.11;99957.41;5047856;28;974;-39
2022/06/22 02:25:47;;;;;;;;;;;;;;;23.95;44.77;99958.69;5054730;28;1092;-40
2022/06/22 02:28:13;;;;;;;;;;;;;;;24.34;44.49;99960.34;5032486;28;1065;-40
2022/06/22 02:30:38;;;;;;;;;;;;;;;22.11;46.86;99966.63;5033044;28;1064;-40
2022/06/22 02:33:04;;;;;;;;;;;;;;;22.41;48.75;99958.03;5052030;28;830;-41
2022/06/22 02:35:29;;;;;;;;;;;;;;;23.40;47.75;99967.63;5025363;28;959;-41
2022/06/22 02:37:55;;;;;;;;;;;;;;;22.51;46.16;99964.91;5051200;28;1902;-40
2022/06/22 02:40:22;;;;;;;;;;;;;;;22.07;49.60;99967.97;5037937;28;1049;-42
2022/06/22 02:45:32;;;;;;;;;;;;;;;23.96;44.83;99976.47;5051854;28;1012;-39
2022/06/22 02:48:01;;;;;;;;;;;;;;;24.14;45.23;99984.19;5051987;28;1149;-41
2022/06/22 02:50:39;;;;;;;;;;;;;;;22.09;47.21;99980.19;5027205;28;1224;-40
2022/06/22 02:53:13;;;;;;;;;;;;;;;22.82;47.32;99981.28;5046940;28;1023;-40
2022/06/22 02:55:38;;;;;;;;;;;;;;;23.54;46.96;99992.88;5045729;28;951;-41
2022/06/22 02:58:19;;;;;;;;;;;;;;;21.88;47.51;99999.44;5035976;28;1957;-41
2022/06/22 03:00:45;;;;;;;;;;;;;;;22.63;47.79;99994.91;5029315;28;1005;-38
2022/06/22 03:03:11;;;;;;;;;;;;;;;23.53;47.06;99987.66;5051002;28;1243;-40
2022/06/22 03:05:36;;;;;;;;;;;;;;;22.19;46.76;99993.41;5051582;28;1187;-40
2022/06/22 03:08:02;;;;;;;;;;;;;;;22.19;49.06;99989.91;5038163;28;974;-42
2022/06/22 03:10:35;;;;;;;;;;;;;;;23.33;45.64;99993.47;5053950;28;1206;-40
2022/06/22 03:13:01;;;;;;;;;;;;;;;22.65;45.44;99999.25;5039904;28;1092;-42
2022/06/22 03:15:27;;;;;;;;;;;;;;;22.18;49.28;100006.97;5032660;28;970;-40
2022/06/22 03:17:52;;;;;;;;;;;;;;;23.12;45.57;100013.69;5039196;28;1971;-41
2022/06/22 03:23:24;;;;;;;;;;;;;;;23.65;45.36;100020.31;5062811;28;1009;-40
2022/06/22 03:25:51;;;;;;;;;;;;;;;21.94;49.36;100019.38;5050467;28;1198;-40
2022/06/22 03:28:17;;;;;;;;;;;;;;;22.87;46.85;100025.31;5055796;28;998;-36
2022/06/22 03:30:42;;;;;;;;;;;;;;;23.41;46.39;100032.84;5075599;28;957;-39
2022/06/22 03:33:11;;;;;;;;;;;;;;;23.94;44.59;100043.78;5064073;28;950;-41
2022/06/22 03:35:47;;;;;;;;;;;;;;;23.09;44.71;100048.88;5053542;28;1089;-39
2022/06/22 03:38:17;;;;;;;;;;;;;;;21.37;50.22;100051.16;5047297;28;1950;-38
2022/06/22 03:40:45;;;;;;;;;;;;;;;22.58;47.63;100061.56;5065225;28;1370;-40
2022/06/22 03:43:22;;;;;;;;;;;;;;;23.62;45.17;100069.00;5061663;28;989;-40
2022/06/22 03:45:51;;;;;;;;;;;;;;;24.16;41.84;100072.69;5060176;28;1140;-39
2022/06/22 03:48:19;;;;;;;;;;;;;;;23.07;43.94;100069.72;5055348;28;1220;-38
2022/06/22 03:50:50;;;;;;;;;;;;;;;22.12;46.82;100062.06;5071926;28;1500;-37
2022/06/22 03:56:19;;;;;;;;;;;;;;;24.42;40.34;100079.59;5063060;28;1299;-41
2022/06/22 03:58:46;;;;;;;;;;;;;;;24.45;37.74;100085.44;5040935;28;1902;-39
2022/06/22 04:01:11;;;;;;;;;;;;;;;24.75;38.80;100081.97;5056992;28;1076;-39
2022/06/22 04:03:37;;;;;;;;;;;;;;;25.06;37.82;100074.78;5050461;28;1430;-39
2022/06/22 04:06:03;;;;;;;;;;;;;;;25.44;37.48;100084.63;5070198;28;997;-42
2022/06/22 04:08:31;;;;;;;;;;;;;;;25.65;37.05;100075.78;5066403;28;1032;-38
2022/06/22 04:11:05;;;;;;;;;;;;;;;25.73;37.82;100066.75;5044737;28;1017;-38
2022/06/22 04:13:35;;;;;;;;;;;;;;;25.80;37.24;100067.66;5056672;28;1017;-39
2022/06/22 04:16:17;;;;;;;;;;;;;;;26.01;37.19;100067.84;5067851;28;1196;-39
2022/06/22 04:18:44;;;;;;;;;;;;;;;26.09;37.15;100070.41;5064726;28;1906;-38
2022/06/22 04:21:11;;;;;;;;;;;;;;;26.07;37.09;100083.25;5065555;28;1215;-39
2022/06/22 04:23:37;;;;;;;;;;;;;;;26.12;36.89;100079.97;5048619;28;1318;-41
2022/06/22 04:26:07;;;;;;;;;;;;;;;26.14;36.95;100076.06;5039019;28;942;-41
2022/06/22 04:28:32;;;;;;;;;;;;;;;26.24;37.15;100080.31;5061046;28;1226;-40
2022/06/22 04:30:58;;;;;;;;;;;;;;;26.32;36.72;100084.72;5046405;28;1041;-40
2022/06/22 04:33:39;;;;;;;;;;;;;;;26.36;36.76;100080.66;5052223;28;982;-38
2022/06/22 04:36:10;;;;;;;;;;;;;;;26.38;36.78;100079.41;5067228;28;1148;-39
2022/06/22 04:38:37;;;;;;;;;;;;;;;26.43;36.66;100084.22;5043219;28;1963;-36
2022/06/22 04:41:02;;;;;;;;;;;;;;;26.41;36.57;100081.72;5043818;28;1225;-41
2022/06/22 04:43:28;;;;;;;;;;;;;;;26.44;36.60;100075.13;5057314;28;1410;-40
2022/06/22 04:45:53;;;;;;;;;;;;;;;26.51;36.51;100078.69;5066228;28;1463;-38
2022/06/22 04:48:20;;;;;;;;;;;;;;;26.44;36.29;100072.44;5057929;28;1398;-38
2022/06/22 04:50:45;;;;;;;;;;;;;;;26.55;36.38;100076.44;5044513;28;1090;-38
2022/06/22 04:53:15;;;;;;;;;;;;;;;26.59;36.24;100087.69;5061911;28;1196;-35
2022/06/22 04:55:41;;;;;;;;;;;;;;;26.59;36.46;100084.97;5056288;28;1053;-38
2022/06/22 04:58:09;;;;;;;;;;;;;;;26.65;35.84;100086.88;5062407;28;1898;-34
2022/06/22 05:00:35;;;;;;;;;;;;;;;26.73;35.94;100086.75;5044385;28;1227;-38
2022/06/22 05:03:01;;;;;;;;;;;;;;;26.70;35.46;100086.28;5050273;28;1124;-39
2022/06/22 05:05:29;;;;;;;;;;;;;;;26.74;35.92;100087.59;5042452;28;1014;-39
2022/06/22 05:08:15;;;;;;;;;;;;;;;26.70;36.05;100091.69;5063873;28;1175;-39
2022/06/22 05:10:51;;;;;;;;;;;;;;;26.56;36.39;100096.97;5036462;28;1236;-39
2022/06/22 05:13:17;;;;;;;;;;;;;;;26.56;36.30;100096.16;5044544;28;1185;-39
2022/06/22 05:15:43;;;;;;;;;;;;;;;26.70;36.26;100094.38;5045642;28;1252;-37
2022/06/22 05:18:13;;;;;;;;;;;;;;;26.48;36.71;100087.16;5027918;28;1984;-37
2022/06/22 05:20:43;;;;;;;;;;;;;;;26.52;36.81;100098.41;5025460;28;1435;-39
2022/06/22 05:23:08;;;;;;;;;;;;;;;26.56;36.75;100098.84;5028391;28;1396;-36
2022/06/22 05:25:33;;;;;;;;;;;;;;;26.56;36.91;100098.84;5045029;28;1265;-38
2022/06/22 05:28:09;;;;;;;;;;;;;;;26.53;36.55;100098.22;5043646;28;1057;-38
2022/06/22 05:30:35;;;;;;;;;;;;;;;26.59;36.67;100098.47;5048298;28;1306;-39
2022/06/22 05:33:05;;;;;;;;;;;;;;;26.58;36.36;100097.63;5024609;28;1408;-38
2022/06/22 05:35:51;;;;;;;;;;;;;;;26.56;36.24;100101.56;5030618;28;955;-39
2022/06/22 05:38:16;;;;;;;;;;;;;;;26.52;36.44;100098.41;5030374;28;1902;-36
2022/06/22 05:40:42;;;;;;;;;;;;;;;26.56;36.41;100091.59;5038665;28;1391;-38
2022/06/22 05:43:07;;;;;;;;;;;;;;;26.61;36.45;100097.22;5020704;28;986;-35
2022/06/22 05:45:37;;;;;;;;;;;;;;;26.53;36.17;100092.81;5017776;28;1301;-35
2022/06/22 05:48:04;;;;;;;;;;;;;;;26.58;36.11;100097.63;5024603;28;1384;-38
2022/06/22 05:51:01;;;;;;;;;;;;;;;26.60;35.86;100098.28;5025881;28;1258;-34
2022/06/22 05:53:35;;;;;;;;;;;;;;;26.57;36.23;100103.22;4989914;28;1185;-34
2022/06/22 05:56:03;;;;;;;;;;;;;;;26.65;35.55;100093.13;5046231;28;1611;-39
2022/06/22 05:58:46;;;;;;;;;;;;;;;26.59;36.13;100099.28;5045827;28;1901;-35
2022/06/22 06:01:27;;;;;;;;;;;;;;;26.65;36.16;100095.81;5024856;28;1295;-36
2022/06/22 06:03:58;;;;;;;;;;;;;;;26.68;36.27;100091.88;5044090;28;1180;-39
2022/06/22 06:06:27;;;;;;;;;;;;;;;26.82;36.37;100090.13;5021198;28;1364;-34
2022/06/22 06:08:54;;;;;;;;;;;;;;;26.93;36.54;100088.72;5027448;28;1450;-39
2022/06/22 06:11:24;;;;;;;;;;;;;;;27.06;36.24;100089.91;5036344;28;1021;-37
2022/06/22 06:13:50;;;;;;;;;;;;;;;27.24;36.34;100094.78;5048215;28;1209;-37
2022/06/22 06:16:21;;;;;;;;;;;;;;;27.30;35.84;100095.81;5031490;28;1033;-37
2022/06/22 06:18:46;;;;;;;;;;;;;;;27.45;36.03;100101.94;5029236;28;1914;-39
2022/06/22 06:21:14;;;;;;;;;;;;;;;27.59;36.18;100096.56;5029942;28;1387;-37
2022/06/22 06:23:56;;;;;;;;;;;;;;;27.65;35.77;100101.16;5026561;28;1586;-35
2022/06/22 06:29:20;;;;;;;;;;;;;;;27.67;35.76;100104.50;5050282;28;1209;-37
2022/06/22 06:32:04;;;;;;;;;;;;;;;27.67;36.22;100100.97;5032653;28;1220;-37
2022/06/22 06:34:41;;;;;;;;;;;;;;;27.56;36.69;100099.69;5044889;28;1363;-35
2022/06/22 06:37:14;;;;;;;;;;;;;;;27.62;36.64;100099.72;5042355;28;1914;-38
2022/06/22 06:39:43;;;;;;;;;;;;;;;27.76;36.07;100099.75;5036460;28;1297;-36
2022/06/22 06:42:17;;;;;;;;;;;;;;;27.77;36.38;100106.84;5029685;28;1302;-34
2022/06/22 06:44:43;;;;;;;;;;;;;;;27.61;36.85;100106.13;5047774;28;1347;-36
2022/06/22 06:47:16;;;;;;;;;;;;;;;27.63;36.60;100101.38;5048396;28;1216;-36
2022/06/22 06:49:46;;;;;;;;;;;;;;;27.73;36.77;100106.41;5047872;28;1470;-38
2022/06/22 06:52:12;;;;;;;;;;;;;;;27.76;37.18;100115.97;5047045;28;1192;-39
2022/06/22 06:54:39;;;;;;;;;;;;;;;27.76;36.86;100110.56;5049172;28;1267;-33
2022/06/22 06:57:14;;;;;;;;;;;;;;;27.76;36.88;100115.97;5027934;28;1961;-37
2022/06/22 06:59:40;;;;;;;;;;;;;;;27.82;36.53;100109.78;5047817;28;1177;-37
2022/06/22 07:02:17;;;;;;;;;;;;;;;27.86;36.52;100104.81;5047470;28;1251;-37
2022/06/22 07:04:42;;;;;;;;;;;;;;;27.98;36.27;100113.13;5018312;28;1409;-36
2022/06/22 07:07:12;;;;;;;;;;;;;;;28.06;36.54;100117.53;5030720;28;1183;-37
2022/06/22 07:09:39;;;;;;;;;;;;;;;27.92;36.61;100108.56;5027996;28;1017;-37
2022/06/22 07:12:06;;;;;;;;;;;;;;;28.02;36.36;100111.69;5033061;28;1204;-39
2022/06/22 07:14:32;;;;;;;;;;;;;;;28.08;36.16;100105.47;5031092;28;954;-37
2022/06/22 07:17:05;;;;;;;;;;;;;;;28.06;36.56;100115.63;5025749;28;1980;-36
2022/06/22 07:19:58;;;;;;;;;;;;;;;28.08;36.23;100110.88;5029540;28;947;-34
2022/06/22 07:22:27;;;;;;;;;;;;;;;27.97;36.24;100114.19;5041997;28;1069;-39
2022/06/22 07:25:22;;;;;;;;;;;;;;;27.95;36.36;100108.13;5026997;28;1521;-38
2022/06/22 07:27:53;;;;;;;;;;;;;;;27.92;36.38;100114.78;5048985;28;958;-39
2022/06/22 07:30:25;;;;;;;;;;;;;;;27.92;36.12;100114.78;5021634;28;1054;-39
2022/06/22 07:32:50;;;;;;;;;;;;;;;27.91;36.21;100110.41;5049886;28;1000;-39
2022/06/22 07:35:15;;;;;;;;;;;;;;;28.02;35.85;100121.66;5043568;28;1403;-39
2022/06/22 07:37:47;;;;;;;;;;;;;;;28.14;35.38;100121.91;5042148;28;1965;-40
2022/06/22 07:40:12;;;;;;;;;;;;;;;28.17;35.61;100116.94;5044586;28;1228;-40
2022/06/22 07:42:38;;;;;;;;;;;;;;;28.19;35.12;100106.75;5047900;28;1185;-41
2022/06/22 07:45:03;;;;;;;;;;;;;;;28.40;35.22;100114.88;5053437;28;985;-41
2022/06/22 07:47:33;;;;;;;;;;;;;;;28.46;35.23;100109.47;5030998;28;1290;-40
2022/06/22 07:50:16;;;;;;;;;;;;;;;28.46;35.32;100114.88;5041299;28;1189;-41
2022/06/22 07:52:44;;;;;;;;;;;;;;;28.59;35.03;100107.81;5041322;28;1252;-42
2022/06/22 07:55:15;;;;;;;;;;;;;;;28.74;34.11;100123.84;5032919;28;1197;-40
2022/06/22 07:57:43;;;;;;;;;;;;;;;28.69;34.79;100115.53;5048068;28;1902;-38
2022/06/22 08:00:08;;;;;;;;;;;;;;;28.73;34.53;100116.75;5032788;28;990;-37
2022/06/22 08:02:43;;;;;;;;;;;;;;;28.61;34.54;100116.56;5042485;28;1167;-40
2022/06/22 08:05:11;;;;;;;;;;;;;;;28.65;34.72;100117.81;5023619;28;1107;-39
2022/06/22 08:07:38;;;;;;;;;;;;;;;28.66;34.90;100119.47;5021406;28;1180;-40
2022/06/22 08:10:05;;;;;;;;;;;;;;;28.55;34.35;100104.69;5029714;28;1470;-40
2022/06/22 08:12:38;;;;;;;;;;;;;;;28.76;33.86;100121.75;5024519;28;970;-40
2022/06/22 08:15:05;;;;;;;;;;;;;;;28.70;34.18;100125.28;5025950;28;1128;-37
2022/06/22 08:17:36;;;;;;;;;;;;;;;28.86;34.59;100118.63;5026688;28;1902;-42
2022/06/22 08:20:03;;;;;;;;;;;;;;;28.77;33.98;100125.28;5025777;28;1279;-42
2022/06/22 08:22:29;;;;;;;;;;;;;;;28.83;34.58;100125.28;5045604;28;975;-43
2022/06/22 08:24:55;;;;;;;;;;;;;;;29.01;34.19;100117.59;5036970;28;1160;-43
2022/06/22 08:27:21;;;;;;;;;;;;;;;28.94;33.95;100115.72;5045098;28;994;-47
2022/06/22 08:29:48;;;;;;;;;;;;;;;28.75;34.76;100117.38;5041363;28;1160;-44
2022/06/22 08:32:25;;;;;;;;;;;;;;;28.59;34.97;100118.66;5028577;28;869;-41
2022/06/22 08:34:51;;;;;;;;;;;;;;;28.33;35.09;100112.16;5025932;28;1004;-42
2022/06/22 08:37:23;;;;;;;;;;;;;;;28.30;35.60;100110.69;5029022;28;1952;-43
2022/06/22 08:39:52;;;;;;;;;;;;;;;28.24;35.86;100103.41;5027136;28;1057;-42
2022/06/22 08:42:30;;;;;;;;;;;;;;;28.34;35.53;100100.34;5032017;28;1091;-44
2022/06/22 08:45:20;;;;;;;;;;;;;;;28.26;35.34;100090.50;5032231;28;1212;-46
2022/06/22 08:48:13;;;;;;;;;;;;;;;28.28;35.73;100080.31;5037169;28;1233;-43
2022/06/22 08:51:03;;;;;;;;;;;;;;;28.27;35.10;100073.25;5042861;28;1299;-44
2022/06/22 08:53:34;;;;;;;;;;;;;;;28.30;35.74;100082.81;5046077;28;1177;-46
2022/06/22 08:56:08;;;;;;;;;;;;;;;28.26;35.38;100087.78;5048914;28;1073;-42
2022/06/22 08:58:52;;;;;;;;;;;;;;;28.31;35.48;100087.19;5045987;28;1977;-43
2022/06/22 09:01:30;;;;;;;;;;;;;;;28.22;35.54;100090.09;5048033;28;1168;-43
2022/06/22 09:03:58;;;;;;;;;;;;;;;28.28;35.82;100083.00;5049261;28;1202;-42
2022/06/22 09:06:30;;;;;;;;;;;;;;;28.19;35.55;100090.53;5046863;28;1168;-43
2022/06/22 09:09:05;;;;;;;;;;;;;;;28.17;35.98;100089.03;5041575;28;1334;-44
2022/06/22 09:11:31;;;;;;;;;;;;;;;28.13;35.76;100083.22;5045708;28;1160;-43
2022/06/22 09:14:07;;;;;;;;;;;;;;;28.41;34.77;100076.81;5034510;28;1021;-52
2022/06/22 09:16:36;;;;;;;;;;;;;;;28.42;34.79;100073.06;5032250;28;1264;-44
2022/06/22 09:19:04;;;;;;;;;;;;;;;28.44;35.03;100057.47;5044533;28;1910;-42
2022/06/22 09:21:45;;;;;;;;;;;;;;;28.40;35.57;100058.91;5062965;28;1168;-45
2022/06/22 09:24:10;;;;;;;;;;;;;;;28.32;35.31;100059.09;5045942;28;1367;-45
2022/06/22 09:26:38;;;;;;;;;;;;;;;28.46;35.28;100051.84;5063688;28;1289;-45
2022/06/22 09:29:23;;;;;;;;;;;;;;;28.18;35.26;100040.16;5067140;28;1222;-49
2022/06/22 09:31:56;;;;;;;;;;;;;;;28.31;35.78;100047.44;5061688;28;1081;-47
2022/06/22 09:34:33;;;;;;;;;;;;;;;28.19;35.86;100049.97;5047421;28;910;-47
2022/06/22 09:37:11;;;;;;;;;;;;;;;28.37;35.81;100048.53;5060729;28;1901;-46
2022/06/22 09:39:36;;;;;;;;;;;;;;;28.28;35.87;100050.56;5063549;28;1259;-47
2022/06/22 09:42:14;;;;;;;;;;;;;;;28.30;36.17;100050.34;5064635;28;1272;-46
2022/06/22 09:44:43;;;;;;;;;;;;;;;28.22;35.94;100049.53;5054100;28;1204;-47
2022/06/22 09:47:27;;;;;;;;;;;;;;;28.35;35.79;100058.72;5060707;28;1281;-41
2022/06/22 09:49:55;;;;;;;;;;;;;;;28.29;35.67;100054.09;5063729;28;1207;-48
2022/06/22 09:52:23;;;;;;;;;;;;;;;28.51;35.50;100052.03;5059503;28;957;-43
2022/06/22 09:58:08;;;;;;;;;;;;;;;28.54;35.40;100048.09;4999889;28;1961;-43
2022/06/22 10:00:48;;;;;;;;;;;;;;;28.56;35.52;100046.81;5060619;28;1232;-44
2022/06/22 10:03:32;;;;;;;;;;;;;;;28.55;35.59;100033.50;5065749;28;1180;-42
2022/06/22 10:05:57;;;;;;;;;;;;;;;28.51;35.79;100035.81;5064855;28;1240;-44
2022/06/22 10:08:22;;;;;;;;;;;;;;;28.59;35.85;100035.56;5064364;28;1258;-40
2022/06/22 10:10:47;;;;;;;;;;;;;;;28.56;35.41;100032.47;5063573;28;1263;-43
2022/06/22 10:13:13;;;;;;;;;;;;;;;28.71;35.40;100037.66;5062674;28;1239;-46
2022/06/22 10:15:41;;;;;;;;;;;;;;;28.81;35.01;100038.03;5063078;28;1120;-40
2022/06/22 10:18:10;;;;;;;;;;;;;;;28.94;35.09;100045.31;5067430;28;1981;-41
2022/06/22 10:20:41;;;;;;;;;;;;;;;28.93;35.15;100038.22;5051143;28;1239;-41
2022/06/22 10:23:25;;;;;;;;;;;;;;;29.00;34.85;100040.09;5051197;28;1270;-41
2022/06/22 10:26:09;;;;;;;;;;;;;;;29.13;35.41;100041.97;5072657;28;1086;-40
2022/06/22 10:28:52;;;;;;;;;;;;;;;29.09;35.51;100044.25;5068534;28;1263;-44
2022/06/22 10:31:24;;;;;;;;;;;;;;;29.06;35.67;100040.06;5066729;28;1063;-42
2022/06/22 10:33:49;;;;;;;;;;;;;;;29.04;35.94;100047.59;5071166;28;1208;-41
2022/06/22 10:36:14;;;;;;;;;;;;;;;29.01;35.59;100047.19;5061918;28;1218;-42
2022/06/22 10:39:02;;;;;;;;;;;;;;;29.14;35.49;100035.47;5064841;28;1953;-43
2022/06/22 10:47:31;;;;;;;;;;;;;;;29.18;35.59;100029.41;5046741;28;974;-45
2022/06/22 10:50:02;;;;;;;;;;;;;;;29.21;34.81;100025.47;5066368;28;904;-45
2022/06/22 10:52:28;;;;;;;;;;;;;;;29.11;35.55;100023.22;5067563;28;1211;-43
2022/06/22 10:55:05;;;;;;;;;;;;;;;29.14;35.49;100020.06;5066945;28;962;-43
2022/06/22 10:57:30;;;;;;;;;;;;;;;29.15;35.38;100024.44;5059825;28;1898;-44
2022/06/22 11:00:02;;;;;;;;;;;;;;;29.07;35.89;100020.09;5065473;28;1164;-44
2022/06/22 11:02:38;;;;;;;;;;;;;;;29.10;35.77;100018.81;5065206;28;1192;-44
2022/06/22 11:05:03;;;;;;;;;;;;;;;29.38;35.49;100014.13;5062346;28;1274;-47
2022/06/22 11:07:38;;;;;;;;;;;;;;;29.37;36.05;100015.16;5063317;28;1183;-41
2022/06/22 11:10:09;;;;;;;;;;;;;;;29.42;35.85;100001.81;5041433;28;1033;-41
2022/06/22 11:12:41;;;;;;;;;;;;;;;29.34;35.48;100008.31;5065386;28;1184;-41
2022/06/22 11:15:25;;;;;;;;;;;;;;;29.51;35.34;99999.69;5066685;28;1061;-42
2022/06/22 11:18:10;;;;;;;;;;;;;;;29.72;35.30;100000.41;5068703;28;2000;-42
2022/06/22 11:20:36;;;;;;;;;;;;;;;29.90;35.12;100003.19;5035098;28;1300;-41
2022/06/22 11:23:08;;;;;;;;;;;;;;;30.00;34.80;99988.28;5063686;28;1093;-40
2022/06/22 11:31:38;;;;;;;;;;;;;;;29.91;35.21;99993.19;5067812;28;1191;-41
2022/06/22 11:34:03;;;;;;;;;;;;;;;29.91;35.02;100001.31;5065852;28;1378;-42
2022/06/22 11:36:31;;;;;;;;;;;;;;;29.89;35.47;100006.13;5059840;28;1454;-43
2022/06/22 11:39:12;;;;;;;;;;;;;;;29.92;35.37;100014.66;5066819;28;1914;-42
2022/06/22 11:41:49;;;;;;;;;;;;;;;29.97;35.46;100013.13;5047551;28;1522;-42
2022/06/22 11:44:17;;;;;;;;;;;;;;;29.74;35.47;100014.56;5048557;28;1291;-42
2022/06/22 11:46:47;;;;;;;;;;;;;;;29.59;35.71;100002.16;5065657;28;1247;-42
2022/06/22 11:49:27;;;;;;;;;;;;;;;29.58;35.88;100004.00;5046027;28;1197;-42
2022/06/22 11:51:56;;;;;;;;;;;;;;;29.60;35.78;100011.94;5062968;28;1198;-45
2022/06/22 11:54:30;;;;;;;;;;;;;;;29.48;36.38;100000.13;5059940;28;1256;-41
2022/06/22 11:56:56;;;;;;;;;;;;;;;29.57;35.56;100005.06;5058700;28;1898;-43
2022/06/22 11:59:21;;;;;;;;;;;;;;;29.60;36.72;100006.53;5059401;28;1339;-41
2022/06/22 12:01:53;;;;;;;;;;;;;;;29.60;36.21;100001.09;5063784;28;1192;-43
2022/06/22 12:04:22;;;;;;;;;;;;;;;29.72;35.59;100001.22;5068412;28;1355;-41
2022/06/22 12:07:06;;;;;;;;;;;;;;;29.68;35.41;99994.56;5039509;28;899;-42
2022/06/22 12:09:44;;;;;;;;;;;;;;;29.63;35.89;99995.22;5067731;28;1188;-40
2022/06/22 12:12:27;;;;;;;;;;;;;;;29.74;35.56;100001.00;5067933;28;1431;-42
2022/06/22 12:15:06;;;;;;;;;;;;;;;29.67;35.34;99996.47;5062178;28;1208;-39
2022/06/22 12:17:34;;;;;;;;;;;;;;;29.72;34.95;99995.81;5050419;28;1898;-38
2022/06/22 12:20:12;;;;;;;;;;;;;;;29.78;35.22;99988.69;5067012;28;1648;-44
2022/06/22 12:22:37;;;;;;;;;;;;;;;29.60;35.47;99992.13;5060065;28;1513;-43
2022/06/22 12:25:08;;;;;;;;;;;;;;;29.51;35.82;99995.06;5065107;28;1240;-43
2022/06/22 12:27:41;;;;;;;;;;;;;;;29.50;35.65;99989.88;5065808;28;1264;-43
2022/06/22 12:30:09;;;;;;;;;;;;;;;29.45;35.90;99982.41;5044059;28;1259;-44
2022/06/22 12:32:40;;;;;;;;;;;;;;;29.55;35.81;99973.78;5066663;28;1220;-42
2022/06/22 12:35:16;;;;;;;;;;;;;;;29.36;35.78;99983.72;5064320;28;1215;-42
2022/06/22 12:37:49;;;;;;;;;;;;;;;29.31;35.63;99987.06;5062905;28;1894;-43
2022/06/22 12:40:33;;;;;;;;;;;;;;;29.40;35.54;99972.22;5060865;28;1201;-43
2022/06/22 12:42:59;;;;;;;;;;;;;;;29.43;35.42;99979.06;5063380;28;1155;-43
2022/06/22 12:45:36;;;;;;;;;;;;;;;29.60;35.33;99989.41;5062685;28;1164;-41
2022/06/22 12:48:04;;;;;;;;;;;;;;;29.58;35.31;99982.31;5062099;28;1212;-42
2022/06/22 12:50:30;;;;;;;;;;;;;;;29.59;35.53;99972.34;5063694;28;1334;-43
2022/06/22 12:52:58;;;;;;;;;;;;;;;29.72;35.18;99974.13;5064781;28;1224;-41
2022/06/22 12:55:30;;;;;;;;;;;;;;;29.84;35.00;99962.56;5046767;28;1425;-43
2022/06/22 12:58:06;;;;;;;;;;;;;;;29.63;35.45;99956.47;5065296;28;1906;-43
2022/06/22 13:00:34;;;;;;;;;;;;;;;29.51;35.65;99953.63;5065690;28;1179;-41
2022/06/22 13:03:00;;;;;;;;;;;;;;;29.33;34.94;99947.88;5043778;28;1022;-41
2022/06/22 13:05:26;;;;;;;;;;;;;;;29.51;35.08;99954.41;5066072;28;997;-40
2022/06/22 13:07:55;;;;;;;;;;;;;;;29.32;35.06;99946.22;5046877;28;1175;-40
2022/06/22 13:10:22;;;;;;;;;;;;;;;29.30;35.57;99944.75;5063415;28;1160;-40
2022/06/22 13:12:59;;;;;;;;;;;;;;;29.06;34.15;99952.63;5048662;28;1196;-42
2022/06/22 13:15:27;;;;;;;;;;;;;;;28.83;33.83;99949.34;5060951;28;1029;-41
2022/06/22 13:18:11;;;;;;;;;;;;;;;28.94;34.49;99950.56;5055103;28;1906;-43
2022/06/22 13:20:42;;;;;;;;;;;;;;;29.01;34.93;99941.59;5063211;28;1430;-42
2022/06/22 13:23:10;;;;;;;;;;;;;;;29.02;34.79;99943.25;5043113;28;1184;-40
2022/06/22 13:25:40;;;;;;;;;;;;;;;28.79;34.05;99931.88;5064063;28;1136;-41
2022/06/22 13:28:12;;;;;;;;;;;;;;;29.00;34.49;99923.69;5061917;28;1215;-41
2022/06/22 13:30:48;;;;;;;;;;;;;;;28.98;35.17;99928.50;5049448;28;1260;-42
2022/06/22 13:33:29;;;;;;;;;;;;;;;29.05;34.76;99940.94;5045140;28;1291;-41
2022/06/22 13:36:03;;;;;;;;;;;;;;;28.96;35.19;99945.75;5063486;28;1510;-42
2022/06/22 13:38:40;;;;;;;;;;;;;;;29.02;35.08;99943.25;5055880;28;1894;-40
2022/06/22 13:41:12;;;;;;;;;;;;;;;28.98;35.24;99948.25;5073449;28;1192;-40
2022/06/22 13:43:48;;;;;;;;;;;;;;;29.08;35.34;99935.09;5060261;28;1239;-40